createdAt,value
2022-10-11T00:00:24.946Z,10.900
2022-10-11T00:01:35.471Z,9.300
2022-10-11T00:02:34.047Z,10.350
2022-10-11T00:03:27.298Z,11.900
2022-10-11T00:04:43.826Z,13.200
2022-10-11T00:05:31.415Z,13.800
2022-10-11T00:06:27.604Z,14.250
2022-10-11T00:07:21.986Z,15.400
2022-10-11T00:08:56.694Z,15.050
2022-10-11T00:09:35.624Z,15.000
2022-10-11T00:10:30.311Z,14.150
2022-10-11T00:11:21.766Z,13.800
2022-10-11T00:12:29.988Z,15.800
2022-10-11T00:13:32.791Z,13.650
2022-10-11T00:14:23.656Z,14.500
2022-10-11T00:15:22.693Z,15.800
2022-10-11T00:16:31.500Z,13.400
2022-10-11T00:17:26.715Z,16.100
2022-10-11T00:18:39.099Z,13.750
2022-10-11T00:19:35.042Z,13.100
2022-10-11T00:20:29.873Z,13.850
2022-10-11T00:21:21.305Z,13.700
2022-10-11T00:22:26.796Z,12.350
2022-10-11T00:23:21.414Z,15.300
2022-10-11T00:24:27.943Z,14.450
2022-10-11T00:25:24.528Z,16.400
2022-10-11T00:26:34.142Z,12.950
2022-10-11T00:27:28.133Z,11.000
2022-10-11T00:28:23.379Z,12.350
2022-10-11T00:29:22.304Z,11.250
2022-10-11T00:30:23.653Z,12.700
2022-10-11T00:31:24.135Z,12.650
2022-10-11T00:32:23.440Z,13.100
2022-10-11T00:33:37.111Z,12.400
2022-10-11T00:34:25.851Z,13.700
2022-10-11T00:35:39.530Z,11.700
2022-10-11T00:36:21.521Z,10.800
2022-10-11T00:37:57.262Z,12.850
2022-10-11T00:38:23.845Z,12.800
2022-10-11T00:39:29.619Z,13.600
2022-10-11T00:40:31.264Z,13.050
2022-10-11T00:41:28.087Z,10.400
2022-10-11T00:42:40.392Z,12.100
2022-10-11T00:43:24.831Z,11.700
2022-10-11T00:44:23.086Z,13.350
2022-10-11T00:45:25.586Z,13.800
2022-10-11T00:46:19.727Z,17.700
2022-10-11T00:47:38.150Z,13.850
2022-10-11T00:48:31.026Z,14.650
2022-10-11T00:49:43.447Z,13.700
2022-10-11T00:50:27.181Z,11.800
2022-10-11T00:51:28.148Z,14.300
2022-10-11T00:52:22.738Z,12.300
2022-10-11T00:53:35.805Z,12.100
2022-10-11T00:54:23.907Z,12.900
2022-10-11T00:55:26.179Z,11.850
2022-10-11T00:56:21.814Z,11.400
2022-10-11T00:57:28.946Z,11.500
2022-10-11T00:58:32.302Z,11.650
2022-10-11T00:59:24.525Z,12.300
2022-10-11T01:00:32.366Z,11.900
2022-10-11T01:01:28.854Z,14.150
2022-10-11T01:02:26.866Z,13.000
2022-10-11T01:03:25.746Z,11.050
2022-10-11T01:05:17.904Z,12.500
2022-10-11T01:05:46.101Z,9.950
2022-10-11T02:18:55.695Z,15.600
2022-10-11T02:19:30.300Z,15.400
2022-10-11T02:20:28.152Z,15.800
2022-10-11T02:21:40.983Z,16.600
2022-10-11T02:22:32.698Z,14.900
2022-10-11T02:23:38.738Z,11.600
2022-10-11T02:24:26.607Z,11.700
2022-10-11T02:26:34.108Z,14.250
2022-10-11T02:26:41.776Z,13.100
2022-10-11T03:36:17.398Z,17.200
2022-10-11T03:36:36.979Z,16.450
2022-10-11T03:37:29.577Z,16.000
2022-10-11T03:38:28.712Z,16.000
2022-10-11T03:39:31.748Z,17.400
2022-10-11T03:40:27.935Z,17.600
2022-10-11T03:41:23.437Z,19.400
2022-10-11T03:42:33.847Z,18.100
2022-10-11T03:43:26.220Z,18.100
2022-10-11T03:44:24.536Z,16.900
2022-10-11T03:45:29.005Z,13.900
2022-10-11T03:46:25.142Z,13.900
2022-10-11T03:47:29.114Z,17.550
2022-10-11T03:48:20.326Z,14.300
2022-10-11T03:49:23.073Z,15.650
2022-10-11T03:50:28.197Z,15.450
2022-10-11T03:51:25.886Z,15.750
2022-10-11T03:52:39.758Z,15.700
2022-10-11T03:53:34.186Z,15.200
2022-10-11T03:54:26.974Z,11.200
2022-10-11T03:55:20.152Z,10.200
2022-10-11T03:56:30.043Z,11.350
2022-10-11T03:57:26.020Z,12.600
2022-10-11T03:58:26.989Z,14.300
2022-10-11T03:59:41.162Z,14.800
2022-10-11T04:00:29.525Z,15.400
2022-10-11T04:01:27.567Z,14.000
2022-10-11T04:02:20.859Z,13.300
2022-10-11T04:03:22.830Z,12.650
2022-10-11T04:04:25.961Z,11.450
2022-10-11T04:05:22.095Z,11.000
2022-10-11T04:06:28.985Z,14.600
2022-10-11T04:07:30.076Z,12.600
2022-10-11T04:08:29.189Z,14.100
2022-10-11T04:09:33.445Z,13.350
2022-10-11T04:10:27.212Z,13.200
2022-10-11T04:11:30.744Z,13.350
2022-10-11T04:12:22.235Z,14.950
2022-10-11T04:13:34.261Z,13.350
2022-10-11T04:14:29.680Z,13.500
2022-10-11T04:15:26.030Z,13.600
2022-10-11T04:16:21.549Z,12.750
2022-10-11T04:17:21.495Z,13.100
2022-10-11T04:18:25.992Z,16.400
2022-10-11T04:19:22.103Z,11.750
2022-10-11T04:20:25.415Z,13.500
2022-10-11T04:21:30.473Z,14.200
2022-10-11T04:22:26.279Z,14.600
2022-10-11T04:23:26.243Z,13.150
2022-10-11T04:24:20.460Z,14.300
2022-10-11T04:25:28.026Z,13.550
2022-10-11T04:26:26.837Z,13.900
2022-10-11T04:27:24.881Z,13.100
2022-10-11T04:28:30.622Z,15.400
2022-10-11T04:29:28.880Z,15.300
2022-10-11T04:30:40.259Z,14.000
2022-10-11T04:31:21.700Z,13.000
2022-10-11T04:32:26.347Z,11.500
2022-10-11T04:33:23.481Z,13.700
2022-10-11T04:34:23.305Z,12.400
2022-10-11T04:35:31.708Z,12.650
2022-10-11T04:36:27.849Z,14.450
2022-10-11T04:37:24.587Z,14.300
2022-10-11T04:38:24.002Z,12.200
2022-10-11T04:39:27.495Z,13.750
2022-10-11T04:40:30.377Z,12.200
2022-10-11T04:41:20.951Z,10.800
2022-10-11T04:42:28.171Z,10.600
2022-10-11T04:43:24.639Z,12.200
2022-10-11T04:44:22.397Z,12.100
2022-10-11T04:45:22.302Z,12.050
2022-10-11T04:46:28.586Z,11.550
2022-10-11T04:47:24.909Z,12.400
2022-10-11T04:48:24.864Z,12.800
2022-10-11T04:49:20.918Z,12.900
2022-10-11T04:50:24.244Z,13.500
2022-10-11T04:51:24.766Z,12.100
2022-10-11T04:52:30.153Z,10.650
2022-10-11T04:53:29.090Z,9.000
2022-10-11T04:54:54.472Z,10.250
2022-10-11T04:55:30.131Z,10.900
2022-10-11T04:56:23.873Z,9.500
2022-10-11T04:57:24.265Z,10.650
2022-10-11T04:58:35.720Z,12.100
2022-10-11T04:59:31.439Z,11.200
2022-10-11T05:00:26.119Z,12.300
2022-10-11T05:01:22.314Z,10.100
2022-10-11T05:02:26.489Z,11.900
2022-10-11T05:03:28.020Z,15.700
2022-10-11T05:04:24.231Z,14.300
2022-10-11T05:05:20.296Z,13.500
2022-10-11T05:06:33.599Z,10.950
2022-10-11T05:07:24.246Z,12.250
2022-10-11T05:08:28.501Z,15.200
2022-10-11T05:09:27.926Z,13.950
2022-10-11T05:10:30.758Z,13.700
2022-10-11T05:11:25.766Z,14.800
2022-10-11T05:12:21.509Z,13.050
2022-10-11T05:13:31.554Z,12.900
2022-10-11T05:14:27.678Z,13.650
2022-10-11T05:15:22.153Z,14.400
2022-10-11T05:16:28.194Z,13.950
2022-10-11T05:17:23.112Z,13.550
2022-10-11T05:18:19.894Z,14.100
2022-10-11T05:19:20.715Z,17.450
2022-10-11T05:20:30.677Z,16.200
2022-10-11T05:21:31.332Z,17.100
2022-10-11T05:22:23.720Z,18.850
2022-10-11T05:23:37.958Z,17.250
2022-10-11T05:24:27.502Z,16.800
2022-10-11T05:25:26.088Z,17.500
2022-10-11T05:26:21.927Z,14.600
2022-10-11T05:27:33.468Z,16.700
2022-10-11T05:28:25.954Z,15.450
2022-10-11T05:29:24.139Z,14.300
2022-10-11T05:30:26.370Z,16.400
2022-10-11T05:31:29.652Z,15.400
2022-10-11T05:32:29.046Z,15.600
2022-10-11T05:33:25.663Z,17.500
2022-10-11T05:34:25.082Z,18.050
2022-10-11T05:35:28.924Z,24.300
2022-10-11T05:36:25.681Z,17.350
2022-10-11T05:37:33.725Z,16.500
2022-10-11T05:38:28.386Z,15.400
2022-10-11T05:39:29.515Z,17.600
2022-10-11T05:40:20.261Z,19.750
2022-10-11T05:41:26.339Z,16.200
2022-10-11T05:42:30.993Z,18.500
2022-10-11T05:43:25.236Z,17.100
2022-10-11T05:44:34.311Z,25.300
2022-10-11T05:45:28.275Z,25.000
2022-10-11T05:46:26.392Z,20.400
2022-10-11T05:47:25.362Z,26.800
2022-10-11T05:48:39.172Z,26.950
2022-10-11T05:49:24.824Z,26.550
2022-10-11T05:50:27.564Z,27.200
2022-10-11T05:52:04.459Z,22.100
2022-10-11T05:52:30.356Z,21.200
2022-10-11T05:53:27.120Z,21.000
2022-10-11T05:54:23.313Z,20.650
2022-10-11T05:55:32.668Z,23.550
2022-10-11T05:56:27.305Z,19.400
2022-10-11T05:57:24.588Z,22.850
2022-10-11T05:58:22.612Z,20.300
2022-10-11T05:59:30.885Z,18.950
2022-10-11T06:00:28.735Z,18.800
2022-10-11T06:01:22.809Z,24.950
2022-10-11T06:02:25.470Z,26.000
2022-10-11T06:03:26.196Z,23.500
2022-10-11T06:04:28.542Z,24.350
2022-10-11T06:05:22.611Z,25.200
2022-10-11T06:06:32.364Z,21.800
2022-10-11T06:07:26.838Z,20.400
2022-10-11T06:08:22.600Z,20.200
2022-10-11T06:09:32.125Z,21.250
2022-10-11T06:10:22.255Z,22.600
2022-10-11T06:11:25.531Z,23.950
2022-10-11T06:12:23.062Z,23.200
2022-10-11T06:13:29.076Z,21.100
2022-10-11T06:14:24.079Z,23.000
2022-10-11T06:15:23.984Z,20.950
2022-10-11T06:16:32.113Z,20.700
2022-10-11T06:17:28.409Z,21.350
2022-10-11T06:18:22.465Z,22.900
2022-10-11T06:19:34.190Z,21.100
2022-10-11T06:20:28.079Z,20.850
2022-10-11T06:21:24.158Z,21.200
2022-10-11T06:22:22.358Z,20.850
2022-10-11T06:23:20.880Z,18.400
2022-10-11T06:24:30.753Z,17.900
2022-10-11T06:25:26.102Z,19.500
2022-10-11T06:26:34.759Z,22.800
2022-10-11T06:27:24.754Z,19.600
2022-10-11T06:28:26.333Z,27.450
2022-10-11T06:29:20.093Z,20.300
2022-10-11T06:30:34.139Z,22.650
2022-10-11T06:31:27.640Z,22.750
2022-10-11T06:32:25.183Z,18.450
2022-10-11T06:33:33.882Z,18.000
2022-10-11T06:34:30.197Z,23.050
2022-10-11T06:35:21.968Z,17.700
2022-10-11T06:36:20.152Z,25.400
2022-10-11T06:37:26.972Z,18.800
2022-10-11T06:38:32.716Z,23.050
2022-10-11T06:39:26.551Z,18.650
2022-10-11T06:40:25.575Z,20.350
2022-10-11T06:41:21.641Z,22.800
2022-10-11T06:42:40.010Z,16.300
2022-10-11T06:43:23.102Z,16.100
2022-10-11T06:44:31.970Z,17.550
2022-10-11T06:45:34.690Z,15.900
2022-10-11T06:46:24.140Z,17.900
2022-10-11T06:47:28.791Z,16.400
2022-10-11T06:48:25.073Z,16.300
2022-10-11T06:49:32.952Z,16.700
2022-10-11T06:50:35.101Z,17.600
2022-10-11T06:51:35.208Z,15.300
2022-10-11T06:52:20.034Z,16.650
2022-10-11T06:53:22.931Z,20.900
2022-10-11T06:54:56.147Z,14.500
2022-10-11T06:55:25.669Z,13.000
2022-10-11T06:56:24.319Z,15.100
2022-10-11T06:57:20.591Z,14.700
2022-10-11T06:58:30.242Z,17.850
2022-10-11T06:59:22.550Z,19.550
2022-10-11T07:00:25.399Z,22.800
2022-10-11T07:01:37.332Z,19.300
2022-10-11T07:02:32.946Z,20.700
2022-10-11T07:03:24.314Z,16.400
2022-10-11T07:04:20.460Z,14.850
2022-10-11T07:05:24.988Z,18.000
2022-10-11T07:06:27.915Z,15.700
2022-10-11T07:07:22.472Z,17.450
2022-10-11T07:08:32.492Z,17.100
2022-10-11T07:09:42.380Z,18.000
2022-10-11T07:10:25.516Z,14.200
2022-10-11T07:11:45.548Z,17.850
2022-10-11T07:12:32.347Z,17.800
2022-10-11T07:13:22.419Z,19.050
2022-10-11T07:14:24.296Z,20.800
2022-10-11T07:15:34.112Z,14.950
2022-10-11T07:16:30.231Z,13.600
2022-10-11T07:17:31.377Z,14.750
2022-10-11T07:18:25.271Z,14.100
2022-10-11T07:19:35.093Z,13.000
2022-10-11T07:20:26.149Z,14.200
2022-10-11T07:21:23.281Z,16.250
2022-10-11T07:22:34.020Z,24.250
2022-10-11T07:23:30.102Z,21.350
2022-10-11T07:24:33.027Z,17.100
2022-10-11T07:25:25.268Z,14.900
2022-10-11T07:26:38.532Z,13.050
2022-10-11T07:27:31.616Z,13.050
2022-10-11T07:28:24.904Z,16.600
2022-10-11T07:29:37.500Z,14.350
2022-10-11T07:30:30.021Z,14.100
2022-10-11T07:31:32.669Z,13.600
2022-10-11T07:32:20.294Z,18.700
2022-10-11T07:33:22.120Z,22.300
2022-10-11T07:34:29.241Z,16.550
2022-10-11T07:35:25.238Z,18.000
2022-10-11T07:36:32.470Z,15.700
2022-10-11T07:37:32.277Z,13.650
2022-10-11T07:38:27.432Z,16.450
2022-10-11T07:39:21.815Z,20.300
2022-10-11T07:40:28.596Z,14.200
2022-10-11T07:41:26.504Z,14.100
2022-10-11T07:42:24.624Z,15.700
2022-10-11T07:43:25.649Z,16.650
2022-10-11T07:44:28.602Z,16.050
2022-10-11T07:45:28.425Z,17.300
2022-10-11T07:46:24.708Z,15.000
2022-10-11T07:47:31.186Z,18.400
2022-10-11T07:48:24.004Z,16.500
2022-10-11T07:49:27.686Z,14.950
2022-10-11T07:50:26.566Z,16.900
2022-10-11T07:51:21.423Z,18.350
2022-10-11T07:52:26.061Z,19.050
2022-10-11T07:53:22.512Z,19.600
2022-10-11T07:54:33.858Z,16.500
2022-10-11T07:55:34.704Z,20.050
2022-10-11T07:56:22.501Z,19.600
2022-10-11T07:57:30.943Z,21.400
2022-10-11T07:58:24.436Z,17.050
2022-10-11T07:59:27.071Z,23.500
2022-10-11T08:00:20.864Z,16.000
2022-10-11T08:01:30.682Z,16.350
2022-10-11T08:02:26.456Z,16.100
2022-10-11T08:03:25.100Z,19.750
2022-10-11T08:04:37.079Z,19.100
2022-10-11T08:05:30.234Z,18.700
2022-10-11T08:06:22.119Z,18.800
2022-10-11T08:07:20.578Z,19.400
2022-10-11T08:08:33.859Z,17.100
2022-10-11T08:09:28.360Z,20.850
2022-10-11T08:10:26.214Z,21.500
2022-10-11T08:11:22.575Z,19.900
2022-10-11T08:12:30.054Z,19.550
2022-10-11T08:13:24.875Z,25.500
2022-10-11T08:14:24.964Z,18.650
2022-10-11T08:15:24.579Z,18.500
2022-10-11T08:16:26.388Z,17.650
2022-10-11T08:17:24.251Z,19.800
2022-10-11T08:18:25.437Z,21.800
2022-10-11T08:19:28.153Z,16.500
2022-10-11T08:20:24.129Z,17.600
2022-10-11T08:21:24.493Z,19.400
2022-10-11T08:22:28.921Z,16.800
2022-10-11T08:23:27.307Z,15.850
2022-10-11T08:24:24.825Z,14.500
2022-10-11T08:25:32.002Z,19.600
2022-10-11T08:26:24.099Z,21.100
2022-10-11T08:27:32.735Z,22.000
2022-10-11T08:28:22.021Z,18.850
2022-10-11T08:29:30.008Z,15.100
2022-10-11T08:30:28.063Z,15.400
2022-10-11T08:31:23.334Z,16.550
2022-10-11T08:32:37.402Z,15.800
2022-10-11T08:33:22.922Z,15.800
2022-10-11T08:34:24.821Z,15.750
2022-10-11T08:35:20.876Z,17.900
2022-10-11T08:36:26.168Z,16.200
2022-10-11T08:37:27.017Z,15.800
2022-10-11T08:38:25.222Z,16.050
2022-10-11T08:39:34.458Z,17.350
2022-10-11T08:40:35.437Z,17.900
2022-10-11T08:41:25.496Z,17.450
2022-10-11T08:42:22.769Z,17.950
2022-10-11T08:43:30.596Z,20.700
2022-10-11T08:44:46.192Z,17.100
2022-10-11T08:45:27.714Z,17.050
2022-10-11T08:46:36.434Z,17.200
2022-10-11T08:47:31.857Z,15.800
2022-10-11T08:48:28.896Z,14.800
2022-10-11T08:49:20.248Z,17.650
2022-10-11T08:50:32.206Z,18.700
2022-10-11T08:51:30.244Z,16.100
2022-10-11T08:52:26.390Z,16.450
2022-10-11T08:53:36.302Z,15.400
2022-10-11T08:54:34.691Z,17.150
2022-10-11T08:55:27.230Z,19.500
2022-10-11T08:56:20.120Z,18.750
2022-10-11T08:57:30.341Z,21.650
2022-10-11T08:58:29.112Z,20.000
2022-10-11T08:59:22.618Z,17.100
2022-10-11T09:00:38.791Z,18.400
2022-10-11T09:01:30.842Z,19.550
2022-10-11T09:02:49.216Z,18.550
2022-10-11T09:03:24.098Z,19.500
2022-10-11T09:04:24.857Z,18.700
2022-10-11T09:05:26.461Z,19.400
2022-10-11T09:06:22.587Z,19.300
2022-10-11T09:07:34.168Z,22.200
2022-10-11T09:08:28.267Z,23.900
2022-10-11T09:09:29.219Z,20.250
2022-10-11T09:10:24.975Z,16.650
2022-10-11T09:11:27.923Z,21.300
2022-10-11T09:12:32.399Z,20.400
2022-10-11T09:13:24.725Z,21.600
2022-10-11T09:14:23.821Z,20.300
2022-10-11T09:15:30.498Z,22.900
2022-10-11T09:16:28.181Z,23.200
2022-10-11T09:17:24.419Z,20.950
2022-10-11T09:18:34.652Z,20.500
2022-10-11T09:19:28.892Z,23.850
2022-10-11T09:20:22.980Z,19.050
2022-10-11T09:21:27.419Z,24.300
2022-10-11T09:22:30.241Z,20.750
2022-10-11T09:23:24.525Z,20.300
2022-10-11T09:24:35.996Z,20.300
2022-10-11T09:25:39.876Z,19.950
2022-10-11T09:26:22.675Z,20.200
2022-10-11T09:27:49.904Z,18.300
2022-10-11T09:28:35.719Z,18.400
2022-10-11T09:29:24.543Z,18.950
2022-10-11T09:30:24.323Z,16.100
2022-10-11T09:31:22.765Z,19.050
2022-10-11T09:32:35.090Z,15.600
2022-10-11T09:33:32.195Z,16.550
2022-10-11T09:34:25.499Z,16.450
2022-10-11T09:35:34.468Z,16.650
2022-10-11T09:36:28.729Z,16.350
2022-10-11T09:37:27.965Z,16.600
2022-10-11T09:38:22.328Z,17.500
2022-10-11T09:39:38.105Z,16.050
2022-10-11T09:40:26.304Z,15.800
2022-10-11T09:41:29.420Z,19.450
2022-10-11T09:42:22.002Z,15.800
2022-10-11T09:43:27.780Z,17.200
2022-10-11T09:44:30.363Z,17.700
2022-10-11T09:45:20.320Z,18.400
2022-10-11T09:46:31.687Z,16.100
2022-10-11T09:47:26.117Z,18.950
2022-10-11T09:48:22.505Z,16.800
2022-10-11T09:49:25.635Z,15.700
2022-10-11T09:50:31.148Z,19.550
2022-10-11T09:51:28.017Z,16.100
2022-10-11T09:52:24.783Z,16.450
2022-10-11T09:53:32.048Z,16.700
2022-10-11T09:54:21.830Z,16.150
2022-10-11T09:55:25.849Z,16.000
2022-10-11T09:56:51.134Z,15.400
2022-10-11T09:57:25.483Z,15.250
2022-10-11T09:58:24.062Z,18.300
2022-10-11T09:59:21.992Z,16.350
2022-10-11T10:00:20.000Z,15.700
2022-10-11T10:01:28.280Z,14.400
2022-10-11T10:02:24.673Z,17.700
2022-10-11T10:03:27.673Z,13.800
2022-10-11T10:04:27.062Z,14.900
2022-10-11T10:05:24.608Z,14.800
2022-10-11T10:06:20.595Z,14.900
2022-10-11T10:07:25.076Z,15.750
2022-10-11T10:08:26.517Z,17.400
2022-10-11T10:09:22.786Z,15.700
2022-10-11T10:10:32.368Z,16.400
2022-10-11T10:11:25.827Z,13.800
2022-10-11T10:12:24.533Z,14.300
2022-10-11T10:13:20.589Z,13.400
2022-10-11T10:14:33.440Z,13.000
2022-10-11T10:15:21.101Z,15.950
2022-10-11T10:16:22.654Z,15.400
2022-10-11T10:17:31.222Z,13.750
2022-10-11T10:18:21.107Z,13.850
2022-10-11T10:19:25.980Z,15.700
2022-10-11T10:20:25.124Z,13.150
2022-10-11T10:21:35.810Z,14.700
2022-10-11T10:22:25.475Z,15.700
2022-10-11T10:23:22.542Z,13.150
2022-10-11T10:24:34.245Z,13.700
2022-10-11T10:25:26.103Z,14.050
2022-10-11T10:26:24.495Z,16.550
2022-10-11T10:27:29.612Z,12.600
2022-10-11T10:28:25.603Z,13.500
2022-10-11T10:29:28.650Z,14.500
2022-10-11T10:30:22.955Z,13.900
2022-10-11T10:31:44.400Z,14.750
2022-10-11T10:32:30.270Z,13.050
2022-10-11T10:33:28.546Z,16.300
2022-10-11T10:34:21.058Z,16.250
2022-10-11T10:35:20.370Z,16.300
2022-10-11T10:36:22.401Z,14.000
2022-10-11T10:37:25.810Z,13.300
2022-10-11T10:38:26.361Z,13.950
2022-10-11T10:39:22.542Z,15.100
2022-10-11T10:40:26.605Z,14.550
2022-10-11T10:41:20.421Z,14.500
2022-10-11T10:42:32.135Z,12.900
2022-10-11T10:43:27.967Z,17.600
2022-10-11T10:44:22.338Z,13.150
2022-10-11T10:45:26.547Z,15.500
2022-10-11T10:46:30.530Z,14.200
2022-10-11T10:47:21.853Z,15.600
2022-10-11T10:48:20.384Z,14.550
2022-10-11T10:50:06.360Z,15.400
2022-10-11T10:50:23.190Z,13.850
2022-10-11T10:51:22.730Z,13.350
2022-10-11T10:52:32.153Z,14.250
2022-10-11T10:53:22.593Z,14.600
2022-10-11T10:54:25.687Z,14.150
2022-10-11T10:55:20.365Z,16.800
2022-10-11T10:56:26.860Z,16.050
2022-10-11T10:57:28.907Z,13.100
2022-10-11T10:58:22.915Z,13.400
2022-10-11T10:59:50.897Z,13.050
2022-10-11T11:00:27.426Z,13.800
2022-10-11T11:01:25.753Z,12.200
2022-10-11T11:02:39.506Z,11.700
2022-10-11T11:03:30.529Z,11.550
2022-10-11T11:04:41.346Z,13.200
2022-10-11T11:05:22.238Z,11.900
2022-10-11T11:06:35.747Z,11.050
2022-10-11T11:07:21.758Z,13.050
2022-10-11T11:08:24.789Z,13.350
2022-10-11T11:09:20.465Z,11.200
2022-10-11T11:10:34.448Z,14.100
2022-10-11T11:11:28.172Z,14.300
2022-10-11T11:12:26.426Z,13.700
2022-10-11T11:13:34.308Z,14.000
2022-10-11T11:14:28.482Z,12.400
2022-10-11T11:15:32.527Z,13.500
2022-10-11T11:16:21.478Z,14.100
2022-10-11T11:17:31.487Z,10.700
2022-10-11T11:18:56.727Z,12.100
2022-10-11T11:19:34.800Z,12.550
2022-10-11T11:20:22.965Z,9.300
2022-10-11T11:21:29.648Z,11.850
2022-10-11T11:22:26.287Z,15.100
2022-10-11T11:23:26.089Z,10.150
2022-10-11T11:24:23.510Z,11.650
2022-10-11T11:25:28.245Z,10.900
2022-10-11T11:26:24.375Z,12.200
2022-10-11T11:27:29.094Z,12.150
2022-10-11T11:28:23.261Z,10.050
2022-10-11T11:29:24.722Z,11.100
2022-10-11T11:30:22.844Z,12.350
2022-10-11T11:31:20.976Z,10.350
2022-10-11T11:32:26.793Z,10.300
2022-10-11T11:33:39.295Z,12.400
2022-10-11T11:34:23.800Z,10.600
2022-10-11T11:35:22.253Z,11.400
2022-10-11T11:36:24.408Z,9.600
2022-10-11T11:37:23.345Z,9.200
2022-10-11T11:38:29.587Z,10.850
2022-10-11T11:39:26.367Z,11.300
2022-10-11T11:40:22.661Z,13.900
2022-10-11T11:41:26.627Z,11.800
2022-10-11T11:42:29.703Z,10.650
2022-10-11T11:43:21.222Z,11.200
2022-10-11T11:44:26.412Z,11.850
2022-10-11T11:45:31.100Z,10.750
2022-10-11T11:46:22.332Z,11.500
2022-10-11T11:47:22.499Z,12.250
2022-10-11T11:48:25.905Z,10.350
2022-10-11T11:49:32.751Z,10.700
2022-10-11T11:50:25.920Z,12.200
2022-10-11T11:51:20.517Z,9.600
2022-10-11T11:52:22.257Z,9.250
2022-10-11T11:53:37.299Z,10.850
2022-10-11T11:54:24.327Z,8.700
2022-10-11T11:55:31.768Z,11.600
2022-10-11T11:56:38.186Z,10.100
2022-10-11T11:57:47.761Z,8.300
2022-10-11T11:58:22.016Z,8.500
2022-10-11T11:59:26.307Z,11.000
2022-10-11T12:00:26.457Z,8.100
2022-10-11T12:01:31.361Z,8.950
2022-10-11T12:02:33.624Z,8.400
2022-10-11T12:03:28.848Z,8.100
2022-10-11T12:04:25.764Z,9.150
2022-10-11T12:05:25.819Z,7.400
2022-10-11T12:06:30.558Z,6.950
2022-10-11T12:07:29.550Z,8.500
2022-10-11T12:08:24.697Z,8.100
2022-10-11T12:09:22.651Z,11.400
2022-10-11T12:10:21.873Z,9.900
2022-10-11T12:11:26.336Z,8.800
2022-10-11T12:12:20.271Z,9.400
2022-10-11T12:13:32.469Z,8.900
2022-10-11T12:14:26.721Z,7.900
2022-10-11T12:15:22.422Z,9.250
2022-10-11T12:16:26.693Z,9.250
2022-10-11T12:17:25.045Z,9.000
2022-10-11T12:18:26.709Z,8.550
2022-10-11T12:19:20.320Z,8.250
2022-10-11T12:20:23.627Z,9.600
2022-10-11T12:21:27.727Z,9.350
2022-10-11T12:22:22.656Z,11.300
2022-10-11T12:23:28.774Z,7.550
2022-10-11T12:24:22.155Z,9.350
2022-10-11T12:25:24.666Z,9.300
2022-10-11T12:26:22.120Z,9.450
2022-10-11T12:27:30.817Z,10.250
2022-10-11T12:28:26.585Z,8.800
2022-10-11T12:29:28.185Z,8.500
2022-10-11T12:30:34.349Z,9.050
2022-10-11T12:31:31.047Z,8.750
2022-10-11T12:32:24.639Z,9.500
2022-10-11T12:33:22.583Z,10.750
2022-10-11T12:34:35.247Z,7.950
2022-10-11T12:35:31.371Z,10.800
2022-10-11T12:36:23.683Z,8.350
2022-10-11T12:37:23.414Z,9.800
2022-10-11T12:38:30.571Z,8.900
2022-10-11T12:39:28.050Z,10.050
2022-10-11T12:40:22.642Z,10.000
2022-10-11T12:41:43.970Z,12.700
2022-10-11T12:42:34.484Z,10.200
2022-10-11T12:43:25.039Z,9.000
2022-10-11T12:44:34.284Z,11.450
2022-10-11T12:45:28.337Z,11.700
2022-10-11T12:46:26.360Z,9.450
2022-10-11T12:47:37.346Z,7.950
2022-10-11T12:48:23.340Z,9.300
2022-10-11T12:49:31.558Z,8.600
2022-10-11T12:50:22.482Z,9.050
2022-10-11T12:51:26.621Z,10.000
2022-10-11T12:52:32.587Z,9.000
2022-10-11T12:53:27.005Z,7.800
2022-10-11T12:54:30.977Z,8.150
2022-10-11T12:55:33.402Z,9.200
2022-10-11T12:56:53.773Z,8.000
2022-10-11T12:57:25.704Z,11.550
2022-10-11T12:58:27.944Z,12.400
2022-10-11T12:59:28.299Z,10.550
2022-10-11T13:00:27.518Z,9.750
2022-10-11T13:01:22.851Z,7.950
2022-10-11T13:02:22.188Z,8.300
2022-10-11T13:03:32.736Z,10.050
2022-10-11T13:04:26.579Z,9.300
2022-10-11T13:05:28.088Z,11.200
2022-10-11T13:06:25.452Z,13.200
2022-10-11T13:07:29.088Z,9.200
2022-10-11T13:08:24.346Z,9.400
2022-10-11T13:09:27.056Z,9.200
2022-10-11T13:10:26.274Z,11.350
2022-10-11T13:11:22.323Z,10.900
2022-10-11T13:12:41.416Z,8.050
2022-10-11T13:13:28.866Z,7.800
2022-10-11T13:14:21.969Z,9.800
2022-10-11T13:15:23.179Z,11.300
2022-10-11T13:16:32.563Z,8.900
2022-10-11T13:17:24.739Z,11.000
2022-10-11T13:18:24.529Z,11.400
2022-10-11T13:19:34.914Z,8.900
2022-10-11T13:20:38.986Z,8.200
2022-10-11T13:21:27.249Z,12.500
2022-10-11T13:22:22.045Z,8.700
2022-10-11T13:23:30.870Z,11.200
2022-10-11T13:24:27.225Z,12.500
2022-10-11T13:25:24.445Z,6.500
2022-10-11T13:26:22.333Z,7.750
2022-10-11T13:27:28.520Z,10.100
2022-10-11T13:28:26.036Z,9.450
2022-10-11T13:29:22.679Z,9.300
2022-10-11T13:30:30.444Z,10.150
2022-10-11T13:31:28.457Z,12.600
2022-10-11T13:32:25.991Z,10.100
2022-10-11T13:33:24.101Z,8.300
2022-10-11T13:34:35.046Z,6.400
2022-10-11T13:35:29.905Z,7.100
2022-10-11T13:36:20.062Z,9.700
2022-10-11T13:37:32.719Z,9.450
2022-10-11T13:38:35.579Z,9.700
2022-10-11T13:39:31.111Z,8.300
2022-10-11T13:40:21.475Z,10.050
2022-10-11T13:41:28.567Z,8.000
2022-10-11T13:42:25.711Z,10.100
2022-10-11T13:43:22.996Z,11.100
2022-10-11T13:44:23.313Z,7.300
2022-10-11T13:45:30.714Z,10.050
2022-10-11T13:46:22.624Z,10.900
2022-10-11T13:47:27.573Z,8.950
2022-10-11T13:48:32.109Z,7.500
2022-10-11T13:49:24.473Z,8.200
2022-10-11T13:50:26.483Z,7.800
2022-10-11T13:51:30.784Z,8.200
2022-10-11T13:52:30.467Z,10.500
2022-10-11T13:53:27.251Z,9.700
2022-10-11T13:54:34.922Z,7.550
2022-10-11T13:55:29.233Z,9.400
2022-10-11T13:56:24.464Z,8.100
2022-10-11T13:57:24.342Z,8.200
2022-10-11T13:58:30.388Z,7.300
2022-10-11T13:59:23.434Z,8.650
2022-10-11T14:00:26.409Z,8.500
2022-10-11T14:01:26.566Z,7.500
2022-10-11T14:02:25.355Z,9.400
2022-10-11T14:03:21.896Z,7.800
2022-10-11T14:04:25.074Z,8.800
2022-10-11T14:05:30.865Z,6.450
2022-10-11T14:06:26.931Z,8.200
2022-10-11T14:07:27.033Z,7.400
2022-10-11T14:08:40.078Z,8.050
2022-10-11T14:09:34.982Z,9.000
2022-10-11T14:10:28.431Z,7.100
2022-10-11T14:11:23.833Z,8.100
2022-10-11T14:12:34.710Z,7.750
2022-10-11T14:13:23.328Z,7.050
2022-10-11T14:14:25.720Z,5.900
2022-10-11T14:15:35.804Z,8.050
2022-10-11T14:16:35.392Z,9.600
2022-10-11T14:17:27.368Z,9.800
2022-10-11T14:18:26.901Z,7.300
2022-10-11T14:19:33.206Z,6.800
2022-10-11T14:20:30.794Z,6.600
2022-10-11T14:21:25.768Z,6.100
2022-10-11T14:22:22.725Z,7.850
2022-10-11T14:23:31.306Z,8.900
2022-10-11T14:24:24.382Z,9.000
2022-10-11T14:25:24.375Z,8.100
2022-10-11T14:26:36.022Z,8.400
2022-10-11T14:27:28.077Z,8.400
2022-10-11T14:28:24.836Z,9.100
2022-10-11T14:29:29.269Z,8.100
2022-10-11T14:30:28.815Z,6.500
2022-10-11T14:31:26.446Z,7.200
2022-10-11T14:32:21.540Z,8.200
2022-10-11T14:33:30.075Z,6.450
2022-10-11T14:34:26.706Z,5.100
2022-10-11T14:35:27.867Z,7.000
2022-10-11T14:36:32.680Z,7.600
2022-10-11T14:37:21.969Z,8.100
2022-10-11T14:38:26.917Z,7.800
2022-10-11T14:39:20.391Z,7.350
2022-10-11T14:40:31.806Z,9.450
2022-10-11T14:41:21.498Z,7.450
2022-10-11T14:42:30.300Z,8.900
2022-10-11T14:43:32.903Z,9.050
2022-10-11T14:44:29.807Z,9.700
2022-10-11T14:45:26.642Z,9.600
2022-10-11T14:46:23.898Z,9.000
2022-10-11T14:47:34.291Z,7.950
2022-10-11T14:48:50.149Z,8.100
2022-10-11T14:49:24.330Z,6.150
2022-10-11T14:50:37.039Z,6.350
2022-10-11T14:51:32.604Z,9.450
2022-10-11T14:52:27.564Z,7.900
2022-10-11T14:53:20.900Z,7.300